createdAt,value
2023-12-10T00:01:39.925Z,83.90
2023-12-10T00:04:06.727Z,86.50
2023-12-10T00:06:33.451Z,83.89
2023-12-10T00:09:00.109Z,83.89
2023-12-10T00:11:26.776Z,83.81
2023-12-10T00:13:53.420Z,83.26
2023-12-10T00:16:19.990Z,83.44
2023-12-10T00:18:46.724Z,84.36
2023-12-10T00:21:14.669Z,83.51
2023-12-10T00:23:41.309Z,84.29
2023-12-10T00:26:08.262Z,83.12
2023-12-10T00:28:34.837Z,83.87
2023-12-10T00:31:01.437Z,84.09
2023-12-10T00:33:28.247Z,83.26
2023-12-10T00:35:54.958Z,83.25
2023-12-10T00:38:21.998Z,84.31
2023-12-10T00:40:48.639Z,82.57
2023-12-10T00:43:17.759Z,82.25
2023-12-10T00:45:45.663Z,84.12
2023-12-10T00:48:13.668Z,83.06
2023-12-10T00:50:40.380Z,82.16
2023-12-10T00:53:07.026Z,82.57
2023-12-10T00:55:33.563Z,81.64
2023-12-10T00:58:00.197Z,81.29
2023-12-10T01:00:26.850Z,80.87
2023-12-10T01:02:53.623Z,80.90
2023-12-10T01:05:20.669Z,82.78
2023-12-10T01:07:47.322Z,81.54
2023-12-10T01:10:13.950Z,81.17
2023-12-10T01:12:40.679Z,81.25
2023-12-10T01:15:09.726Z,81.98
2023-12-10T01:17:36.456Z,81.18
2023-12-10T01:20:05.104Z,81.20
2023-12-10T01:22:32.123Z,81.16
2023-12-10T01:24:59.321Z,80.67
2023-12-10T01:27:25.997Z,79.73
2023-12-10T01:29:53.516Z,80.92
2023-12-10T01:32:21.695Z,80.26
2023-12-10T01:34:48.384Z,80.55
2023-12-10T01:37:15.162Z,80.91
2023-12-10T01:39:41.750Z,81.20
2023-12-10T01:42:09.246Z,80.93
2023-12-10T01:44:35.899Z,80.74
2023-12-10T01:47:03.411Z,80.36
2023-12-10T01:49:30.272Z,80.37
2023-12-10T01:51:57.569Z,81.32
2023-12-10T01:54:25.879Z,79.97
2023-12-10T01:57:00.063Z,79.89
2023-12-10T01:59:33.359Z,80.77
2023-12-10T02:02:00.204Z,81.02
2023-12-10T02:04:27.016Z,79.96
2023-12-10T02:06:53.687Z,81.07
2023-12-10T02:09:20.602Z,79.37
2023-12-10T02:11:47.367Z,79.47
2023-12-10T02:14:17.111Z,79.10
2023-12-10T02:16:43.681Z,79.31
2023-12-10T02:19:10.369Z,79.05
2023-12-10T02:21:38.770Z,78.36
2023-12-10T02:24:12.558Z,78.62
2023-12-10T02:26:39.482Z,79.48
2023-12-10T02:29:06.093Z,78.72
2023-12-10T02:31:32.948Z,78.72
2023-12-10T02:33:59.676Z,79.05
2023-12-10T02:36:26.390Z,78.80
2023-12-10T02:38:53.003Z,79.07
2023-12-10T02:41:19.553Z,78.02
2023-12-10T02:43:46.141Z,77.00
2023-12-10T02:46:12.835Z,76.90
2023-12-10T02:48:39.698Z,77.98
2023-12-10T02:51:06.803Z,77.91
2023-12-10T02:53:33.363Z,78.13
2023-12-10T02:56:00.044Z,77.99
2023-12-10T02:58:26.677Z,79.18
2023-12-10T03:00:55.411Z,80.23
2023-12-10T03:03:22.359Z,80.67
2023-12-10T03:05:49.046Z,81.49
2023-12-10T03:08:15.578Z,80.94
2023-12-10T03:10:42.321Z,79.63
2023-12-10T03:13:11.937Z,80.49
2023-12-10T03:15:38.663Z,80.23
2023-12-10T03:18:06.857Z,79.53
2023-12-10T03:20:33.754Z,80.11
2023-12-10T03:23:04.203Z,81.17
2023-12-10T03:25:30.819Z,79.74
2023-12-10T03:27:57.519Z,80.71
2023-12-10T03:30:24.166Z,81.11
2023-12-10T03:32:50.895Z,81.54
2023-12-10T03:35:17.575Z,81.90
2023-12-10T03:37:44.220Z,80.73
2023-12-10T03:40:11.485Z,81.19
2023-12-10T03:42:38.127Z,81.03
2023-12-10T03:45:05.468Z,80.60
2023-12-10T03:47:32.074Z,81.09
2023-12-10T03:49:58.685Z,80.15
2023-12-10T03:52:25.336Z,79.55
2023-12-10T03:54:52.004Z,79.32
2023-12-10T03:57:18.716Z,79.55
2023-12-10T03:59:45.326Z,78.87
2023-12-10T04:02:11.895Z,79.25
2023-12-10T04:04:38.426Z,77.91
2023-12-10T04:07:05.587Z,76.85
2023-12-10T04:09:32.387Z,77.33
2023-12-10T04:12:01.855Z,76.17
2023-12-10T04:14:28.501Z,76.09
2023-12-10T04:16:55.502Z,76.31
2023-12-10T04:19:22.293Z,75.76
2023-12-10T04:21:49.025Z,76.30
2023-12-10T04:24:16.704Z,78.29
2023-12-10T04:26:43.755Z,75.23
2023-12-10T04:29:10.490Z,76.19
2023-12-10T04:31:38.011Z,76.50
2023-12-10T04:34:04.840Z,77.35
2023-12-10T04:36:31.506Z,76.15
2023-12-10T04:38:58.088Z,76.01
2023-12-10T04:41:24.671Z,77.27
2023-12-10T04:43:51.203Z,76.56
2023-12-10T04:46:18.124Z,76.50
2023-12-10T04:48:44.851Z,76.04
2023-12-10T04:51:12.689Z,77.00
2023-12-10T04:53:39.255Z,76.56
2023-12-10T04:56:09.661Z,76.75
2023-12-10T04:58:36.262Z,76.87
2023-12-10T05:01:03.833Z,76.27
2023-12-10T05:03:31.000Z,76.70
2023-12-10T05:05:57.706Z,76.45
2023-12-10T05:08:24.298Z,76.18
2023-12-10T05:10:51.004Z,76.95
2023-12-10T05:13:18.061Z,76.83
2023-12-10T05:15:44.706Z,76.83
2023-12-10T05:18:11.890Z,77.15
2023-12-10T05:20:38.478Z,77.56
2023-12-10T05:23:05.150Z,77.85
2023-12-10T05:25:32.207Z,78.00
2023-12-10T05:27:59.761Z,77.76
2023-12-10T05:30:26.740Z,78.41
2023-12-10T05:32:53.456Z,77.91
2023-12-10T05:35:20.090Z,78.55
2023-12-10T05:37:46.676Z,78.35
2023-12-10T05:40:13.391Z,77.36
2023-12-10T05:42:41.184Z,78.17
2023-12-10T05:45:08.413Z,77.54
2023-12-10T05:47:35.077Z,77.72
2023-12-10T05:50:01.710Z,77.83
2023-12-10T05:52:28.466Z,77.71
2023-12-10T05:54:55.140Z,77.99
2023-12-10T05:57:21.891Z,77.59
2023-12-10T05:59:48.477Z,76.85
2023-12-10T06:02:15.081Z,76.47
2023-12-10T06:04:42.477Z,76.35
2023-12-10T06:07:09.115Z,76.62
2023-12-10T06:09:36.110Z,76.33
2023-12-10T06:12:03.347Z,76.41
2023-12-10T06:14:29.924Z,76.14
2023-12-10T06:16:56.481Z,75.42
2023-12-10T06:19:23.259Z,76.73
2023-12-10T06:21:50.037Z,75.43
2023-12-10T06:24:16.687Z,75.34
2023-12-10T06:26:43.387Z,75.95
2023-12-10T06:29:09.967Z,75.93
2023-12-10T06:31:36.517Z,74.94
2023-12-10T06:34:03.257Z,75.71
2023-12-10T06:36:30.123Z,75.97
2023-12-10T06:38:56.752Z,75.58
2023-12-10T06:41:23.470Z,75.50
2023-12-10T06:43:50.076Z,75.82
2023-12-10T06:46:18.737Z,76.18
2023-12-10T06:48:45.854Z,76.21
2023-12-10T06:51:12.996Z,76.81
2023-12-10T06:53:41.188Z,77.58
2023-12-10T06:56:09.370Z,77.65
2023-12-10T06:58:36.014Z,78.16
2023-12-10T07:01:04.561Z,78.10
2023-12-10T07:03:31.336Z,76.00
2023-12-10T07:06:00.227Z,76.71
2023-12-10T07:08:27.121Z,76.79
2023-12-10T07:10:53.738Z,76.23
2023-12-10T07:13:20.789Z,77.62
2023-12-10T07:15:47.743Z,77.76
2023-12-10T07:18:14.579Z,77.36
2023-12-10T07:20:41.376Z,77.34
2023-12-10T07:23:08.053Z,77.62
2023-12-10T07:25:35.030Z,77.48
2023-12-10T07:28:01.783Z,77.12
2023-12-10T07:30:28.555Z,77.06
2023-12-10T07:32:55.494Z,76.98
2023-12-10T07:35:23.370Z,76.90
2023-12-10T07:37:49.995Z,76.40
2023-12-10T07:40:16.674Z,77.67
2023-12-10T07:42:43.374Z,77.27
2023-12-10T07:45:10.537Z,78.69
2023-12-10T07:47:37.324Z,78.91
2023-12-10T07:50:04.272Z,77.45
2023-12-10T07:52:31.217Z,76.94
2023-12-10T07:54:58.065Z,76.81
2023-12-10T07:57:24.746Z,76.31
2023-12-10T07:59:53.559Z,75.73
2023-12-10T08:02:20.229Z,74.85
2023-12-10T08:04:46.884Z,73.78
2023-12-10T08:07:13.587Z,74.15
2023-12-10T08:09:40.506Z,73.41
2023-12-10T08:12:07.467Z,73.41
2023-12-10T08:14:34.352Z,72.07
2023-12-10T08:17:01.242Z,72.32
2023-12-10T08:19:27.999Z,71.78
2023-12-10T08:21:54.856Z,71.87
2023-12-10T08:24:21.638Z,70.63
2023-12-10T08:26:48.304Z,70.83
2023-12-10T08:29:14.989Z,70.04
2023-12-10T08:31:42.937Z,69.64
2023-12-10T08:34:09.860Z,69.69
2023-12-10T08:36:37.249Z,68.86
2023-12-10T08:39:05.038Z,69.41
2023-12-10T08:41:32.537Z,68.81
2023-12-10T08:43:59.374Z,69.12
2023-12-10T08:46:26.090Z,69.15
2023-12-10T08:48:52.941Z,69.89
2023-12-10T08:51:19.671Z,68.23
2023-12-10T08:53:46.270Z,69.45
2023-12-10T08:56:13.003Z,68.85
2023-12-10T08:58:39.583Z,68.38
2023-12-10T09:01:07.922Z,68.96
2023-12-10T09:03:34.846Z,68.88
2023-12-10T09:06:01.879Z,68.82
2023-12-10T09:08:28.530Z,69.41
2023-12-10T09:10:56.000Z,69.51
2023-12-10T09:13:25.075Z,69.25
2023-12-10T09:15:53.202Z,68.68
2023-12-10T09:18:19.880Z,67.80
2023-12-10T09:20:46.610Z,68.29
2023-12-10T09:23:13.531Z,67.95
2023-12-10T09:25:40.552Z,67.94
2023-12-10T09:28:08.019Z,67.75
2023-12-10T09:30:35.076Z,66.90
2023-12-10T09:33:01.855Z,67.37
2023-12-10T09:35:28.795Z,67.33
2023-12-10T09:37:56.027Z,67.33
2023-12-10T09:40:22.864Z,67.59
2023-12-10T09:42:49.880Z,66.73
2023-12-10T09:45:17.579Z,65.43
2023-12-10T09:47:46.225Z,65.98
2023-12-10T09:50:13.403Z,66.05
2023-12-10T09:52:39.989Z,65.86
2023-12-10T09:55:07.056Z,65.84
2023-12-10T09:57:33.851Z,65.05
2023-12-10T10:00:01.093Z,64.68
2023-12-10T10:02:32.944Z,64.59
2023-12-10T10:04:59.786Z,64.25
2023-12-10T10:07:26.428Z,65.02
2023-12-10T10:09:53.142Z,65.14
2023-12-10T10:12:19.896Z,63.89
2023-12-10T10:14:59.966Z,64.51
2023-12-10T10:17:32.160Z,64.93
2023-12-10T10:20:00.021Z,64.56
2023-12-10T10:22:28.266Z,64.12
2023-12-10T10:24:56.333Z,64.12
2023-12-10T10:27:24.322Z,63.87
2023-12-10T10:29:54.919Z,64.06
2023-12-10T10:32:23.208Z,64.47
2023-12-10T10:34:51.277Z,65.08
2023-12-10T10:37:19.359Z,64.19
2023-12-10T10:39:49.316Z,64.94
2023-12-10T10:42:18.406Z,63.57
2023-12-10T10:44:45.087Z,64.08
2023-12-10T10:47:12.089Z,64.29
2023-12-10T10:49:46.091Z,64.58
2023-12-10T10:52:34.309Z,64.29
2023-12-10T10:55:03.281Z,64.71
2023-12-10T10:57:30.570Z,64.38
2023-12-10T11:00:33.932Z,64.71
2023-12-10T11:03:04.002Z,64.09
2023-12-10T11:05:37.532Z,63.69
2023-12-10T11:08:09.614Z,63.79
2023-12-10T11:10:43.036Z,62.46
2023-12-10T11:13:09.726Z,62.99
2023-12-10T11:15:36.473Z,63.09
2023-12-10T11:18:04.438Z,62.60
2023-12-10T11:20:45.372Z,62.04
2023-12-10T11:23:17.831Z,62.70
2023-12-10T11:25:45.253Z,62.88
2023-12-10T11:28:13.568Z,62.49
2023-12-10T11:30:41.505Z,63.00
2023-12-10T11:33:09.962Z,62.44
2023-12-10T11:35:37.412Z,62.84
2023-12-10T11:38:05.648Z,62.27
2023-12-10T11:40:33.748Z,61.83
2023-12-10T11:43:04.483Z,61.87
2023-12-10T11:45:32.098Z,61.92
2023-12-10T11:47:59.042Z,61.29
2023-12-10T11:50:26.285Z,61.37
2023-12-10T11:52:52.879Z,60.79
2023-12-10T11:55:19.956Z,60.66
2023-12-10T11:57:46.574Z,60.23
2023-12-10T12:00:14.378Z,60.08
2023-12-10T12:02:42.138Z,60.60
2023-12-10T12:05:10.451Z,60.21
2023-12-10T12:07:37.663Z,60.20
2023-12-10T12:10:04.943Z,61.02
2023-12-10T12:12:32.467Z,61.36
2023-12-10T12:14:59.086Z,61.98
2023-12-10T12:17:25.894Z,62.40
2023-12-10T12:19:53.303Z,62.30
2023-12-10T12:22:20.041Z,61.76
2023-12-10T12:24:46.926Z,62.93
2023-12-10T12:27:13.668Z,62.80
2023-12-10T12:29:40.381Z,62.73
2023-12-10T12:32:19.724Z,63.29
2023-12-10T12:34:54.067Z,63.08
2023-12-10T12:37:20.652Z,63.14
2023-12-10T12:39:47.509Z,64.04
2023-12-10T12:42:14.401Z,64.54
2023-12-10T12:44:41.767Z,63.92
2023-12-10T12:47:08.355Z,64.12
2023-12-10T12:49:37.564Z,64.07
2023-12-10T12:52:09.064Z,64.43
2023-12-10T12:54:36.316Z,64.53
2023-12-10T12:57:03.391Z,64.06
2023-12-10T12:59:30.068Z,65.00
2023-12-10T13:01:57.009Z,65.09
2023-12-10T13:04:23.874Z,65.10
2023-12-10T13:06:50.633Z,65.36
2023-12-10T13:09:18.819Z,65.57
2023-12-10T13:11:45.739Z,66.29
2023-12-10T13:14:12.912Z,65.88
2023-12-10T13:16:39.531Z,66.52
2023-12-10T13:19:06.582Z,66.65
2023-12-10T13:21:33.298Z,66.38
2023-12-10T13:23:59.992Z,67.16
2023-12-10T13:26:26.793Z,67.01
2023-12-10T13:28:53.454Z,67.75
2023-12-10T13:31:20.825Z,67.80
2023-12-10T13:33:47.553Z,67.46
2023-12-10T13:36:14.175Z,67.74
2023-12-10T13:38:40.806Z,67.83
2023-12-10T13:41:07.449Z,67.76
2023-12-10T13:43:34.093Z,67.72
2023-12-10T13:46:00.868Z,68.42
2023-12-10T13:48:27.758Z,69.04
2023-12-10T13:51:54.344Z,100.00
2023-12-10T13:54:21.077Z,68.34
2023-12-10T13:57:46.450Z,100.00
2023-12-10T14:01:12.022Z,100.00
2023-12-10T14:03:44.970Z,68.34
2023-12-10T14:06:11.722Z,68.56
2023-12-10T14:09:36.974Z,100.00
2023-12-10T14:12:08.920Z,68.56
2023-12-10T14:15:01.276Z,68.56
2023-12-10T14:17:27.950Z,68.30
2023-12-10T14:19:54.818Z,68.00
2023-12-10T14:22:21.644Z,68.41
2023-12-10T14:24:48.364Z,68.55
2023-12-10T14:27:14.942Z,68.81
2023-12-10T14:29:41.576Z,69.09
2023-12-10T14:32:08.486Z,69.13
2023-12-10T14:34:35.200Z,69.11
2023-12-10T14:37:01.859Z,68.78
2023-12-10T14:39:29.328Z,68.46
2023-12-10T14:41:55.951Z,68.81
2023-12-10T14:44:22.573Z,68.92
2023-12-10T14:46:49.886Z,69.19
2023-12-10T14:49:19.448Z,70.19
2023-12-10T14:51:48.188Z,70.30
2023-12-10T14:54:14.949Z,70.71
2023-12-10T14:56:41.598Z,70.50
2023-12-10T14:59:08.174Z,70.58
2023-12-10T15:01:35.267Z,70.85
2023-12-10T15:04:02.149Z,70.77
2023-12-10T15:06:31.017Z,70.82
2023-12-10T15:08:57.669Z,70.58
2023-12-10T15:11:24.265Z,71.00
2023-12-10T15:14:49.359Z,100.00
2023-12-10T15:18:14.605Z,100.00
2023-12-10T17:09:30.028Z,72.34
2023-12-10T17:14:47.494Z,71.38
2023-12-10T17:17:14.099Z,71.41
2023-12-10T17:19:40.814Z,71.32
2023-12-10T17:22:07.546Z,70.52
2023-12-10T17:24:36.317Z,71.10
2023-12-10T17:27:03.011Z,70.35
2023-12-10T17:29:29.616Z,70.63
2023-12-10T17:31:56.245Z,70.00
2023-12-10T17:34:22.904Z,69.96
2023-12-10T17:36:50.335Z,69.46
2023-12-10T17:39:20.976Z,69.42
2023-12-10T17:41:47.665Z,69.73
2023-12-10T17:44:16.332Z,70.06
2023-12-10T17:46:42.947Z,69.06
2023-12-10T17:49:09.603Z,68.97
2023-12-10T17:51:36.324Z,69.42
2023-12-10T17:54:03.064Z,69.11
2023-12-10T17:56:29.674Z,68.78
2023-12-10T17:58:56.279Z,69.29
2023-12-10T18:01:22.952Z,69.37
2023-12-10T18:03:49.767Z,69.50
2023-12-10T18:06:16.492Z,69.57
2023-12-10T18:08:43.165Z,68.87
2023-12-10T18:11:09.831Z,70.33
2023-12-10T18:13:36.513Z,69.79
2023-12-10T18:16:03.397Z,71.31
2023-12-10T18:18:30.217Z,72.57
2023-12-10T18:21:00.589Z,71.88
2023-12-10T18:23:27.268Z,72.17
2023-12-10T18:25:54.277Z,72.61
2023-12-10T18:28:21.281Z,71.18
2023-12-10T18:30:47.993Z,71.21
2023-12-10T18:33:15.964Z,69.98
2023-12-10T18:35:42.782Z,70.38
2023-12-10T18:38:09.519Z,70.00
2023-12-10T18:40:36.210Z,69.72
2023-12-10T18:43:05.918Z,70.19
2023-12-10T18:45:35.397Z,69.97
2023-12-10T18:48:02.445Z,70.26
2023-12-10T18:50:29.107Z,68.93
2023-12-10T18:52:55.746Z,68.92
2023-12-10T18:55:22.457Z,68.68
2023-12-10T18:57:49.100Z,69.75
2023-12-10T19:00:16.277Z,69.96
2023-12-10T19:02:43.041Z,68.90
2023-12-10T19:05:09.875Z,69.88
2023-12-10T19:07:36.494Z,70.02
2023-12-10T19:10:04.500Z,69.67
2023-12-10T19:12:32.082Z,69.21
2023-12-10T19:14:58.829Z,69.17
2023-12-10T19:17:25.546Z,68.66
2023-12-10T19:19:53.214Z,70.64
2023-12-10T19:22:19.875Z,70.36
2023-12-10T19:24:46.974Z,71.55
2023-12-10T19:27:13.738Z,71.79
2023-12-10T19:29:40.392Z,73.61
2023-12-10T19:32:08.100Z,73.57
2023-12-10T19:34:34.990Z,74.28
2023-12-10T19:37:01.817Z,75.12
2023-12-10T19:39:28.484Z,74.82
2023-12-10T19:41:55.125Z,75.48
2023-12-10T19:44:24.622Z,76.05
2023-12-10T19:46:51.370Z,77.11
2023-12-10T19:49:21.734Z,77.83
2023-12-10T19:51:48.536Z,77.29
2023-12-10T19:54:15.226Z,79.74
2023-12-10T19:56:41.863Z,84.15
2023-12-10T19:59:09.264Z,83.44
2023-12-10T20:01:36.035Z,81.93
2023-12-10T20:04:03.901Z,79.52
2023-12-10T20:06:30.945Z,77.72
2023-12-10T20:08:57.717Z,78.07
2023-12-10T20:11:24.468Z,78.45
2023-12-10T20:13:51.258Z,80.05
2023-12-10T20:16:18.531Z,80.33
2023-12-10T20:18:45.500Z,80.39
2023-12-10T20:21:12.193Z,100.00
2023-12-10T20:23:38.922Z,80.71
2023-12-10T20:26:05.583Z,80.12
2023-12-10T20:28:32.237Z,79.10
2023-12-10T20:30:58.934Z,79.07
2023-12-10T20:33:27.129Z,78.28
2023-12-10T20:35:53.880Z,78.16
2023-12-10T20:38:20.557Z,77.72
2023-12-10T20:40:49.828Z,77.86
2023-12-10T20:43:18.005Z,77.01
2023-12-10T20:45:45.456Z,77.14
2023-12-10T20:48:12.593Z,76.32
2023-12-10T20:50:39.345Z,76.75
2023-12-10T20:53:05.902Z,76.28
2023-12-10T20:55:32.533Z,76.00
2023-12-10T20:57:59.292Z,76.26
2023-12-10T21:00:25.975Z,75.42
2023-12-10T21:02:52.663Z,75.03
2023-12-10T21:05:19.451Z,74.81
2023-12-10T21:07:46.329Z,75.00
2023-12-10T21:10:13.168Z,74.67
2023-12-10T21:12:40.298Z,74.79
2023-12-10T21:15:07.430Z,74.68
2023-12-10T21:17:34.437Z,74.08
2023-12-10T21:20:01.813Z,74.55
2023-12-10T21:22:28.520Z,74.67
2023-12-10T21:24:55.275Z,74.36
2023-12-10T21:27:21.880Z,74.60
2023-12-10T21:29:48.564Z,75.03
2023-12-10T21:32:15.147Z,74.54
2023-12-10T21:34:41.867Z,74.43
2023-12-10T21:37:08.714Z,74.73
2023-12-10T21:39:35.532Z,75.50
2023-12-10T21:42:02.141Z,75.43
2023-12-10T21:44:28.797Z,76.05
2023-12-10T21:46:58.038Z,75.69
2023-12-10T21:49:25.065Z,75.63
2023-12-10T21:51:51.912Z,76.25
2023-12-10T21:54:18.664Z,75.57
2023-12-10T21:56:45.275Z,75.81
2023-12-10T21:59:11.974Z,76.37
2023-12-10T22:01:39.283Z,76.56
2023-12-10T22:04:06.135Z,76.74
2023-12-10T22:06:33.431Z,77.06
2023-12-10T22:09:00.016Z,76.95
2023-12-10T22:11:26.798Z,76.64
2023-12-10T22:13:53.671Z,76.93
2023-12-10T22:16:20.326Z,77.33
2023-12-10T22:18:47.087Z,76.76
2023-12-10T22:21:14.216Z,77.18
2023-12-10T22:23:41.071Z,77.27
2023-12-10T22:26:09.266Z,77.17
2023-12-10T22:28:35.941Z,77.06
2023-12-10T22:31:02.923Z,77.43
2023-12-10T22:33:29.582Z,77.36
2023-12-10T22:35:56.255Z,77.75
2023-12-10T22:38:24.712Z,79.95
2023-12-10T22:40:52.699Z,81.41
2023-12-10T22:43:23.814Z,83.80
2023-12-10T22:45:50.465Z,83.73
2023-12-10T22:48:17.209Z,84.45
2023-12-10T22:50:43.965Z,85.75
2023-12-10T22:53:10.546Z,86.40
2023-12-10T22:55:37.108Z,86.47
2023-12-10T22:58:04.541Z,86.22
2023-12-10T23:00:31.503Z,86.11
2023-12-10T23:02:58.224Z,85.64
2023-12-10T23:05:24.879Z,85.35
2023-12-10T23:07:51.555Z,86.31
2023-12-10T23:10:18.200Z,85.77
2023-12-10T23:12:44.889Z,86.44
2023-12-10T23:15:12.715Z,86.20
2023-12-10T23:17:41.935Z,85.93
2023-12-10T23:20:10.555Z,85.54
2023-12-10T23:22:37.685Z,85.41
2023-12-10T23:25:04.965Z,85.35
2023-12-10T23:27:32.710Z,84.64
2023-12-10T23:29:59.492Z,84.99
2023-12-10T23:32:26.206Z,85.12
2023-12-10T23:34:57.199Z,85.54
2023-12-10T23:37:23.944Z,85.17
2023-12-10T23:39:50.651Z,85.50
2023-12-10T23:42:17.433Z,85.32
2023-12-10T23:44:44.061Z,85.05
2023-12-10T23:47:12.162Z,85.34
2023-12-10T23:49:38.950Z,85.26
2023-12-10T23:52:05.972Z,85.11
2023-12-10T23:54:32.796Z,85.72
2023-12-10T23:56:59.452Z,85.60
2023-12-10T23:59:26.043Z,85.96
